sensor_id;sensor_type;location;lat;lon;timestamp;temperature;humidity
53802;DHT22;39709;53.334;6.534;2024-03-23T00:52:33;4.70;99.90
53802;DHT22;39709;53.334;6.534;2024-03-23T00:54:59;4.70;99.90
53802;DHT22;39709;53.334;6.534;2024-03-23T00:57:24;4.70;99.90
53802;DHT22;39709;53.334;6.534;2024-03-23T00:59:50;4.70;99.90
53802;DHT22;39709;53.334;6.534;2024-03-23T01:02:15;4.70;99.90
53802;DHT22;39709;53.334;6.534;2024-03-23T01:04:41;4.70;99.90
53802;DHT22;39709;53.334;6.534;2024-03-23T01:07:06;4.50;99.90
53802;DHT22;39709;53.334;6.534;2024-03-23T01:09:32;4.50;99.90
53802;DHT22;39709;53.334;6.534;2024-03-23T01:11:57;4.40;99.90
53802;DHT22;39709;53.334;6.534;2024-03-23T01:14:23;4.80;99.90
53802;DHT22;39709;53.334;6.534;2024-03-23T01:16:49;4.40;99.90
53802;DHT22;39709;53.334;6.534;2024-03-23T01:19:14;4.30;99.90
53802;DHT22;39709;53.334;6.534;2024-03-23T01:21:40;4.40;99.90
53802;DHT22;39709;53.334;6.534;2024-03-23T01:24:05;4.60;99.90
53802;DHT22;39709;53.334;6.534;2024-03-23T01:26:32;4.20;99.90
53802;DHT22;39709;53.334;6.534;2024-03-23T01:28:57;4.30;99.90
53802;DHT22;39709;53.334;6.534;2024-03-23T01:31:23;4.90;99.90
53802;DHT22;39709;53.334;6.534;2024-03-23T01:33:48;4.20;99.90
53802;DHT22;39709;53.334;6.534;2024-03-23T01:36:14;4.20;99.90
53802;DHT22;39709;53.334;6.534;2024-03-23T01:38:39;4.20;99.90
53802;DHT22;39709;53.334;6.534;2024-03-23T01:41:05;4.20;99.90
53802;DHT22;39709;53.334;6.534;2024-03-23T01:43:30;4.20;99.90
53802;DHT22;39709;53.334;6.534;2024-03-23T01:45:56;4.40;99.90
53802;DHT22;39709;53.334;6.534;2024-03-23T01:48:22;4.50;99.90
53802;DHT22;39709;53.334;6.534;2024-03-23T01:50:47;4.40;99.90
53802;DHT22;39709;53.334;6.534;2024-03-23T01:53:14;4.40;99.90
53802;DHT22;39709;53.334;6.534;2024-03-23T01:55:42;4.30;99.90
53802;DHT22;39709;53.334;6.534;2024-03-23T01:58:08;4.30;99.90
53802;DHT22;39709;53.334;6.534;2024-03-23T02:00:33;4.40;99.90
53802;DHT22;39709;53.334;6.534;2024-03-23T02:02:59;4.30;99.90
53802;DHT22;39709;53.334;6.534;2024-03-23T02:05:25;4.50;99.90
53802;DHT22;39709;53.334;6.534;2024-03-23T02:07:50;4.30;99.90
53802;DHT22;39709;53.334;6.534;2024-03-23T02:10:16;4.30;99.90
53802;DHT22;39709;53.334;6.534;2024-03-23T02:12:41;4.30;99.90
53802;DHT22;39709;53.334;6.534;2024-03-23T02:15:07;4.70;99.90
53802;DHT22;39709;53.334;6.534;2024-03-23T02:17:34;4.70;99.90
53802;DHT22;39709;53.334;6.534;2024-03-23T02:20:00;4.30;99.90
53802;DHT22;39709;53.334;6.534;2024-03-23T02:22:34;4.40;99.90
53802;DHT22;39709;53.334;6.534;2024-03-23T02:25:00;4.60;99.90
53802;DHT22;39709;53.334;6.534;2024-03-23T02:27:25;4.30;99.90
53802;DHT22;39709;53.334;6.534;2024-03-23T02:29:51;4.40;99.90
53802;DHT22;39709;53.334;6.534;2024-03-23T02:32:16;4.40;99.90
53802;DHT22;39709;53.334;6.534;2024-03-23T02:34:42;4.40;99.90
53802;DHT22;39709;53.334;6.534;2024-03-23T02:37:11;4.40;99.90
53802;DHT22;39709;53.334;6.534;2024-03-23T02:39:37;4.30;99.90
53802;DHT22;39709;53.334;6.534;2024-03-23T02:42:02;4.30;99.90
53802;DHT22;39709;53.334;6.534;2024-03-23T02:44:28;4.20;99.90
53802;DHT22;39709;53.334;6.534;2024-03-23T02:46:53;4.20;99.90
53802;DHT22;39709;53.334;6.534;2024-03-23T02:49:19;4.20;99.90
53802;DHT22;39709;53.334;6.534;2024-03-23T02:51:46;4.10;99.90
53802;DHT22;39709;53.334;6.534;2024-03-23T02:54:13;4.00;99.90
53802;DHT22;39709;53.334;6.534;2024-03-23T02:56:39;3.90;99.90
53802;DHT22;39709;53.334;6.534;2024-03-23T02:59:05;4.00;99.90
53802;DHT22;39709;53.334;6.534;2024-03-23T03:01:30;4.00;99.90
53802;DHT22;39709;53.334;6.534;2024-03-23T03:03:56;4.10;99.90
53802;DHT22;39709;53.334;6.534;2024-03-23T03:06:27;4.00;99.90
53802;DHT22;39709;53.334;6.534;2024-03-23T03:08:53;3.90;99.90
53802;DHT22;39709;53.334;6.534;2024-03-23T03:11:18;3.90;99.90
53802;DHT22;39709;53.334;6.534;2024-03-23T03:13:44;4.10;99.90
53802;DHT22;39709;53.334;6.534;2024-03-23T03:16:10;5.00;99.90
53802;DHT22;39709;53.334;6.534;2024-03-23T03:18:35;4.10;99.90
53802;DHT22;39709;53.334;6.534;2024-03-23T03:21:01;4.00;99.90
53802;DHT22;39709;53.334;6.534;2024-03-23T03:23:27;4.00;99.90
53802;DHT22;39709;53.334;6.534;2024-03-23T03:25:53;3.90;99.90
53802;DHT22;39709;53.334;6.534;2024-03-23T03:28:19;4.50;99.90
53802;DHT22;39709;53.334;6.534;2024-03-23T03:30:45;4.50;99.90
53802;DHT22;39709;53.334;6.534;2024-03-23T03:33:11;4.00;99.90
53802;DHT22;39709;53.334;6.534;2024-03-23T03:35:36;3.80;99.90
53802;DHT22;39709;53.334;6.534;2024-03-23T03:38:04;3.70;99.90
53802;DHT22;39709;53.334;6.534;2024-03-23T03:40:29;3.70;99.90
53802;DHT22;39709;53.334;6.534;2024-03-23T03:42:55;3.70;99.90
53802;DHT22;39709;53.334;6.534;2024-03-23T03:45:21;4.40;99.90
53802;DHT22;39709;53.334;6.534;2024-03-23T03:47:46;3.60;99.90
53802;DHT22;39709;53.334;6.534;2024-03-23T03:50:12;3.50;99.90
53802;DHT22;39709;53.334;6.534;2024-03-23T03:52:38;3.50;99.90
53802;DHT22;39709;53.334;6.534;2024-03-23T03:55:03;3.50;99.90
53802;DHT22;39709;53.334;6.534;2024-03-23T03:57:29;3.50;99.90
53802;DHT22;39709;53.334;6.534;2024-03-23T03:59:54;3.50;99.90
53802;DHT22;39709;53.334;6.534;2024-03-23T04:02:20;3.50;99.90
53802;DHT22;39709;53.334;6.534;2024-03-23T04:04:45;3.80;99.90
53802;DHT22;39709;53.334;6.534;2024-03-23T04:07:11;4.10;99.90
53802;DHT22;39709;53.334;6.534;2024-03-23T04:09:37;3.50;99.90
53802;DHT22;39709;53.334;6.534;2024-03-23T04:12:02;3.50;99.90
53802;DHT22;39709;53.334;6.534;2024-03-23T04:14:28;3.60;99.90
53802;DHT22;39709;53.334;6.534;2024-03-23T04:16:53;4.10;99.90
53802;DHT22;39709;53.334;6.534;2024-03-23T04:19:19;3.90;99.90
53802;DHT22;39709;53.334;6.534;2024-03-23T04:21:45;4.00;99.90
53802;DHT22;39709;53.334;6.534;2024-03-23T04:24:10;3.50;99.90
53802;DHT22;39709;53.334;6.534;2024-03-23T04:26:42;3.60;99.90
53802;DHT22;39709;53.334;6.534;2024-03-23T04:29:08;3.50;99.90
53802;DHT22;39709;53.334;6.534;2024-03-23T04:31:34;3.40;99.90
53802;DHT22;39709;53.334;6.534;2024-03-23T04:34:04;3.60;99.90
53802;DHT22;39709;53.334;6.534;2024-03-23T04:36:29;3.70;99.90
53802;DHT22;39709;53.334;6.534;2024-03-23T04:38:56;3.50;99.90
53802;DHT22;39709;53.334;6.534;2024-03-23T04:41:22;3.40;99.90
53802;DHT22;39709;53.334;6.534;2024-03-23T04:43:47;3.50;99.90
53802;DHT22;39709;53.334;6.534;2024-03-23T04:46:13;3.70;99.90
53802;DHT22;39709;53.334;6.534;2024-03-23T04:48:38;3.50;99.90
53802;DHT22;39709;53.334;6.534;2024-03-23T04:51:04;3.90;99.90
53802;DHT22;39709;53.334;6.534;2024-03-23T04:53:29;3.30;99.90
53802;DHT22;39709;53.334;6.534;2024-03-23T04:55:55;3.40;99.90
53802;DHT22;39709;53.334;6.534;2024-03-23T04:58:22;3.40;99.90
53802;DHT22;39709;53.334;6.534;2024-03-23T05:00:47;3.50;99.90
53802;DHT22;39709;53.334;6.534;2024-03-23T05:03:13;3.90;99.90
53802;DHT22;39709;53.334;6.534;2024-03-23T05:05:38;3.50;99.90
53802;DHT22;39709;53.334;6.534;2024-03-23T05:08:04;3.40;99.90
53802;DHT22;39709;53.334;6.534;2024-03-23T05:10:30;3.40;99.90
53802;DHT22;39709;53.334;6.534;2024-03-23T05:12:57;3.50;99.90
53802;DHT22;39709;53.334;6.534;2024-03-23T05:15:23;3.60;99.90
53802;DHT22;39709;53.334;6.534;2024-03-23T05:17:48;3.40;99.90
53802;DHT22;39709;53.334;6.534;2024-03-23T05:20:14;3.30;99.90
53802;DHT22;39709;53.334;6.534;2024-03-23T05:22:40;3.30;99.90
53802;DHT22;39709;53.334;6.534;2024-03-23T05:25:05;3.20;99.90
53802;DHT22;39709;53.334;6.534;2024-03-23T05:27:32;3.20;99.90
53802;DHT22;39709;53.334;6.534;2024-03-23T05:29:58;3.30;99.90
53802;DHT22;39709;53.334;6.534;2024-03-23T05:32:23;3.30;99.90
53802;DHT22;39709;53.334;6.534;2024-03-23T05:34:49;3.40;99.90
53802;DHT22;39709;53.334;6.534;2024-03-23T05:37:15;3.60;99.90
53802;DHT22;39709;53.334;6.534;2024-03-23T05:39:41;3.40;99.90
53802;DHT22;39709;53.334;6.534;2024-03-23T05:42:06;3.20;99.90
53802;DHT22;39709;53.334;6.534;2024-03-23T05:44:33;3.50;99.90
53802;DHT22;39709;53.334;6.534;2024-03-23T05:46:58;3.30;99.90
53802;DHT22;39709;53.334;6.534;2024-03-23T05:49:24;3.30;99.90
53802;DHT22;39709;53.334;6.534;2024-03-23T05:51:50;3.40;99.90
53802;DHT22;39709;53.334;6.534;2024-03-23T05:54:15;3.70;99.90
53802;DHT22;39709;53.334;6.534;2024-03-23T05:56:41;3.90;99.90
53802;DHT22;39709;53.334;6.534;2024-03-23T05:59:07;3.50;99.90
53802;DHT22;39709;53.334;6.534;2024-03-23T06:01:33;3.40;99.90
53802;DHT22;39709;53.334;6.534;2024-03-23T06:03:58;3.40;99.90
53802;DHT22;39709;53.334;6.534;2024-03-23T06:06:24;3.40;99.90
53802;DHT22;39709;53.334;6.534;2024-03-23T06:08:50;4.00;99.90
53802;DHT22;39709;53.334;6.534;2024-03-23T06:11:15;3.30;99.90
53802;DHT22;39709;53.334;6.534;2024-03-23T06:13:41;3.40;99.90
53802;DHT22;39709;53.334;6.534;2024-03-23T06:16:06;3.40;99.90
53802;DHT22;39709;53.334;6.534;2024-03-23T06:18:32;3.50;99.90
53802;DHT22;39709;53.334;6.534;2024-03-23T06:20:57;3.70;99.90
53802;DHT22;39709;53.334;6.534;2024-03-23T06:23:23;4.10;99.90
53802;DHT22;39709;53.334;6.534;2024-03-23T06:25:49;3.90;99.90
53802;DHT22;39709;53.334;6.534;2024-03-23T06:28:14;4.00;99.90
53802;DHT22;39709;53.334;6.534;2024-03-23T06:30:40;4.10;99.90
53802;DHT22;39709;53.334;6.534;2024-03-23T06:33:05;4.00;99.90
53802;DHT22;39709;53.334;6.534;2024-03-23T06:35:31;4.10;99.90
53802;DHT22;39709;53.334;6.534;2024-03-23T06:37:57;4.10;99.90
53802;DHT22;39709;53.334;6.534;2024-03-23T06:40:23;4.20;99.90
53802;DHT22;39709;53.334;6.534;2024-03-23T06:42:49;4.10;99.90
53802;DHT22;39709;53.334;6.534;2024-03-23T06:45:16;4.20;99.90
53802;DHT22;39709;53.334;6.534;2024-03-23T06:47:42;4.40;99.90
53802;DHT22;39709;53.334;6.534;2024-03-23T06:50:08;4.40;99.90
53802;DHT22;39709;53.334;6.534;2024-03-23T06:52:35;4.30;99.90
53802;DHT22;39709;53.334;6.534;2024-03-23T06:55:01;5.00;99.90
53802;DHT22;39709;53.334;6.534;2024-03-23T06:57:27;4.60;99.90
53802;DHT22;39709;53.334;6.534;2024-03-23T06:59:52;4.90;99.90
53802;DHT22;39709;53.334;6.534;2024-03-23T07:02:18;4.60;99.90
53802;DHT22;39709;53.334;6.534;2024-03-23T07:04:44;4.90;99.90
53802;DHT22;39709;53.334;6.534;2024-03-23T07:07:09;5.00;99.90
53802;DHT22;39709;53.334;6.534;2024-03-23T07:09:35;5.10;99.90
53802;DHT22;39709;53.334;6.534;2024-03-23T07:12:00;5.50;99.90
53802;DHT22;39709;53.334;6.534;2024-03-23T07:14:26;5.60;99.90
53802;DHT22;39709;53.334;6.534;2024-03-23T07:16:51;5.90;99.90
53802;DHT22;39709;53.334;6.534;2024-03-23T07:19:17;6.10;99.90
53802;DHT22;39709;53.334;6.534;2024-03-23T07:21:43;6.30;99.90
53802;DHT22;39709;53.334;6.534;2024-03-23T07:24:09;6.10;99.90
53802;DHT22;39709;53.334;6.534;2024-03-23T07:26:35;6.00;99.90
53802;DHT22;39709;53.334;6.534;2024-03-23T07:29:00;6.10;99.90
53802;DHT22;39709;53.334;6.534;2024-03-23T07:31:26;6.20;99.90
53802;DHT22;39709;53.334;6.534;2024-03-23T07:33:52;6.20;99.90
53802;DHT22;39709;53.334;6.534;2024-03-23T07:36:17;5.70;99.90
53802;DHT22;39709;53.334;6.534;2024-03-23T07:38:43;6.00;99.90
53802;DHT22;39709;53.334;6.534;2024-03-23T07:41:12;5.80;99.90
53802;DHT22;39709;53.334;6.534;2024-03-23T07:43:39;5.70;99.90
53802;DHT22;39709;53.334;6.534;2024-03-23T07:46:06;5.70;99.90
53802;DHT22;39709;53.334;6.534;2024-03-23T07:48:32;6.00;99.90
53802;DHT22;39709;53.334;6.534;2024-03-23T07:51:07;6.20;99.90
53802;DHT22;39709;53.334;6.534;2024-03-23T07:53:33;6.20;99.90
53802;DHT22;39709;53.334;6.534;2024-03-23T07:56:00;6.60;99.90
53802;DHT22;39709;53.334;6.534;2024-03-23T07:58:26;6.40;99.90
53802;DHT22;39709;53.334;6.534;2024-03-23T08:00:52;6.50;99.90
53802;DHT22;39709;53.334;6.534;2024-03-23T08:03:18;6.70;99.90
53802;DHT22;39709;53.334;6.534;2024-03-23T08:05:44;6.80;99.90
53802;DHT22;39709;53.334;6.534;2024-03-23T08:08:09;6.70;99.90
53802;DHT22;39709;53.334;6.534;2024-03-23T08:10:36;7.10;99.90
53802;DHT22;39709;53.334;6.534;2024-03-23T08:13:02;7.10;99.90
53802;DHT22;39709;53.334;6.534;2024-03-23T08:15:29;7.10;99.90
53802;DHT22;39709;53.334;6.534;2024-03-23T08:17:55;6.80;99.90
53802;DHT22;39709;53.334;6.534;2024-03-23T08:20:20;6.90;99.90
53802;DHT22;39709;53.334;6.534;2024-03-23T08:22:46;7.00;99.90
53802;DHT22;39709;53.334;6.534;2024-03-23T08:25:12;6.70;99.90
53802;DHT22;39709;53.334;6.534;2024-03-23T08:27:37;6.90;99.90
53802;DHT22;39709;53.334;6.534;2024-03-23T08:30:03;6.90;99.90
53802;DHT22;39709;53.334;6.534;2024-03-23T08:32:28;6.90;99.90
53802;DHT22;39709;53.334;6.534;2024-03-23T08:34:54;6.80;99.90
53802;DHT22;39709;53.334;6.534;2024-03-23T08:37:20;6.80;99.90
53802;DHT22;39709;53.334;6.534;2024-03-23T08:39:46;6.80;99.90
53802;DHT22;39709;53.334;6.534;2024-03-23T08:42:11;6.60;99.90
53802;DHT22;39709;53.334;6.534;2024-03-23T08:44:37;6.40;99.90
53802;DHT22;39709;53.334;6.534;2024-03-23T08:47:02;6.30;99.90
53802;DHT22;39709;53.334;6.534;2024-03-23T08:49:28;6.40;99.90
53802;DHT22;39709;53.334;6.534;2024-03-23T08:51:54;6.50;99.90
53802;DHT22;39709;53.334;6.534;2024-03-23T08:54:19;6.80;99.90
53802;DHT22;39709;53.334;6.534;2024-03-23T08:56:46;6.80;99.90
53802;DHT22;39709;53.334;6.534;2024-03-23T08:59:11;6.90;99.90
53802;DHT22;39709;53.334;6.534;2024-03-23T09:01:37;6.90;99.90
53802;DHT22;39709;53.334;6.534;2024-03-23T09:04:03;7.10;99.90
53802;DHT22;39709;53.334;6.534;2024-03-23T09:06:29;7.30;99.90
53802;DHT22;39709;53.334;6.534;2024-03-23T09:08:55;7.60;99.90
53802;DHT22;39709;53.334;6.534;2024-03-23T09:11:20;7.70;99.90
53802;DHT22;39709;53.334;6.534;2024-03-23T09:13:46;7.90;99.90
53802;DHT22;39709;53.334;6.534;2024-03-23T09:16:11;7.90;99.90
53802;DHT22;39709;53.334;6.534;2024-03-23T09:18:38;7.70;99.90
53802;DHT22;39709;53.334;6.534;2024-03-23T09:21:03;6.90;99.90
53802;DHT22;39709;53.334;6.534;2024-03-23T09:23:29;6.50;99.90
53802;DHT22;39709;53.334;6.534;2024-03-23T09:25:55;6.60;99.90
53802;DHT22;39709;53.334;6.534;2024-03-23T09:28:22;6.40;99.90
53802;DHT22;39709;53.334;6.534;2024-03-23T09:30:47;6.40;99.90
53802;DHT22;39709;53.334;6.534;2024-03-23T09:33:13;6.50;99.90
53802;DHT22;39709;53.334;6.534;2024-03-23T09:35:39;6.40;99.90
53802;DHT22;39709;53.334;6.534;2024-03-23T09:38:05;6.30;99.90
53802;DHT22;39709;53.334;6.534;2024-03-23T09:40:31;6.40;99.90
53802;DHT22;39709;53.334;6.534;2024-03-23T09:42:57;6.60;99.90
53802;DHT22;39709;53.334;6.534;2024-03-23T09:45:26;7.10;99.90
53802;DHT22;39709;53.334;6.534;2024-03-23T09:47:52;7.00;99.90
53802;DHT22;39709;53.334;6.534;2024-03-23T09:50:18;7.20;99.90
53802;DHT22;39709;53.334;6.534;2024-03-23T09:52:47;7.80;99.90
53802;DHT22;39709;53.334;6.534;2024-03-23T09:55:13;7.60;99.90
53802;DHT22;39709;53.334;6.534;2024-03-23T09:57:40;7.70;99.90
53802;DHT22;39709;53.334;6.534;2024-03-23T10:00:05;8.10;99.90
53802;DHT22;39709;53.334;6.534;2024-03-23T10:02:31;8.10;99.90
53802;DHT22;39709;53.334;6.534;2024-03-23T10:04:58;8.30;99.90
53802;DHT22;39709;53.334;6.534;2024-03-23T10:07:23;8.50;99.90
53802;DHT22;39709;53.334;6.534;2024-03-23T10:09:49;8.60;99.90
53802;DHT22;39709;53.334;6.534;2024-03-23T10:12:18;8.70;99.90
53802;DHT22;39709;53.334;6.534;2024-03-23T10:14:44;8.40;99.90
53802;DHT22;39709;53.334;6.534;2024-03-23T10:19:45;8.10;99.90
53802;DHT22;39709;53.334;6.534;2024-03-23T10:22:15;8.00;99.90
53802;DHT22;39709;53.334;6.534;2024-03-23T10:24:41;8.20;99.90
53802;DHT22;39709;53.334;6.534;2024-03-23T10:27:07;8.40;99.90
53802;DHT22;39709;53.334;6.534;2024-03-23T10:29:32;8.00;99.90
53802;DHT22;39709;53.334;6.534;2024-03-23T10:32:08;7.10;99.90
53802;DHT22;39709;53.334;6.534;2024-03-23T10:34:34;6.40;99.90
53802;DHT22;39709;53.334;6.534;2024-03-23T10:37:01;6.10;99.90
53802;DHT22;39709;53.334;6.534;2024-03-23T10:39:27;6.00;99.90
53802;DHT22;39709;53.334;6.534;2024-03-23T10:41:52;6.30;99.90
53802;DHT22;39709;53.334;6.534;2024-03-23T10:44:18;6.10;99.90
53802;DHT22;39709;53.334;6.534;2024-03-23T10:46:44;6.10;99.90
53802;DHT22;39709;53.334;6.534;2024-03-23T10:49:10;6.20;99.90
53802;DHT22;39709;53.334;6.534;2024-03-23T10:51:36;6.10;99.90
53802;DHT22;39709;53.334;6.534;2024-03-23T10:54:03;6.20;99.90
53802;DHT22;39709;53.334;6.534;2024-03-23T10:56:29;6.20;99.90
53802;DHT22;39709;53.334;6.534;2024-03-23T10:58:59;6.30;99.90
53802;DHT22;39709;53.334;6.534;2024-03-23T11:01:25;6.30;99.90
53802;DHT22;39709;53.334;6.534;2024-03-23T11:03:51;6.50;99.90
53802;DHT22;39709;53.334;6.534;2024-03-23T11:06:33;6.40;99.90
53802;DHT22;39709;53.334;6.534;2024-03-23T11:08:59;6.50;99.90
53802;DHT22;39709;53.334;6.534;2024-03-23T11:11:25;6.60;99.90
53802;DHT22;39709;53.334;6.534;2024-03-23T11:13:52;6.80;99.90
53802;DHT22;39709;53.334;6.534;2024-03-23T11:16:22;7.20;99.90
53802;DHT22;39709;53.334;6.534;2024-03-23T11:18:49;7.50;99.90
53802;DHT22;39709;53.334;6.534;2024-03-23T11:24:14;8.00;99.90
53802;DHT22;39709;53.334;6.534;2024-03-23T11:26:40;7.80;99.90
53802;DHT22;39709;53.334;6.534;2024-03-23T11:29:09;7.80;99.90
53802;DHT22;39709;53.334;6.534;2024-03-23T11:31:36;7.60;99.90
53802;DHT22;39709;53.334;6.534;2024-03-23T11:34:05;7.60;99.90
53802;DHT22;39709;53.334;6.534;2024-03-23T11:36:31;7.10;99.90
53802;DHT22;39709;53.334;6.534;2024-03-23T11:38:56;6.80;99.90
53802;DHT22;39709;53.334;6.534;2024-03-23T11:41:22;6.60;99.90
53802;DHT22;39709;53.334;6.534;2024-03-23T11:43:47;6.40;99.90
53802;DHT22;39709;53.334;6.534;2024-03-23T11:46:21;6.70;99.90
53802;DHT22;39709;53.334;6.534;2024-03-23T11:48:50;6.40;99.90
53802;DHT22;39709;53.334;6.534;2024-03-23T11:51:17;6.70;99.90
53802;DHT22;39709;53.334;6.534;2024-03-23T11:53:42;7.10;99.90
53802;DHT22;39709;53.334;6.534;2024-03-23T11:56:08;7.20;99.90
53802;DHT22;39709;53.334;6.534;2024-03-23T11:58:34;7.20;99.90
53802;DHT22;39709;53.334;6.534;2024-03-23T12:01:03;7.30;99.90
53802;DHT22;39709;53.334;6.534;2024-03-23T12:03:29;7.10;99.90
53802;DHT22;39709;53.334;6.534;2024-03-23T12:05:56;7.00;99.90
53802;DHT22;39709;53.334;6.534;2024-03-23T12:10:48;7.00;99.90
53802;DHT22;39709;53.334;6.534;2024-03-23T12:13:14;7.00;99.90
53802;DHT22;39709;53.334;6.534;2024-03-23T12:15:40;6.90;99.90
53802;DHT22;39709;53.334;6.534;2024-03-23T12:18:09;6.70;99.90
53802;DHT22;39709;53.334;6.534;2024-03-23T12:20:35;6.70;99.90
53802;DHT22;39709;53.334;6.534;2024-03-23T12:23:08;6.60;99.90
53802;DHT22;39709;53.334;6.534;2024-03-23T12:25:37;6.90;99.90
53802;DHT22;39709;53.334;6.534;2024-03-23T12:28:03;7.00;99.90
53802;DHT22;39709;53.334;6.534;2024-03-23T12:30:32;7.30;99.90
53802;DHT22;39709;53.334;6.534;2024-03-23T12:32:57;7.50;99.90
53802;DHT22;39709;53.334;6.534;2024-03-23T12:35:23;7.60;99.90
53802;DHT22;39709;53.334;6.534;2024-03-23T12:37:48;7.90;99.90
53802;DHT22;39709;53.334;6.534;2024-03-23T12:40:14;7.90;99.90
53802;DHT22;39709;53.334;6.534;2024-03-23T12:42:40;8.20;99.90
53802;DHT22;39709;53.334;6.534;2024-03-23T12:45:05;8.10;99.90
53802;DHT22;39709;53.334;6.534;2024-03-23T12:47:31;7.70;99.90
53802;DHT22;39709;53.334;6.534;2024-03-23T12:49:56;7.60;99.90
53802;DHT22;39709;53.334;6.534;2024-03-23T12:52:22;7.60;99.90
53802;DHT22;39709;53.334;6.534;2024-03-23T12:54:49;7.30;99.90
53802;DHT22;39709;53.334;6.534;2024-03-23T12:57:15;7.30;99.90
53802;DHT22;39709;53.334;6.534;2024-03-23T12:59:40;7.20;99.90
53802;DHT22;39709;53.334;6.534;2024-03-23T13:02:06;7.30;99.90
53802;DHT22;39709;53.334;6.534;2024-03-23T13:04:32;7.20;99.90
53802;DHT22;39709;53.334;6.534;2024-03-23T13:06:58;6.40;99.90
53802;DHT22;39709;53.334;6.534;2024-03-23T13:09:23;6.00;99.90
53802;DHT22;39709;53.334;6.534;2024-03-23T13:11:49;5.80;99.90
53802;DHT22;39709;53.334;6.534;2024-03-23T13:14:14;5.90;99.90
53802;DHT22;39709;53.334;6.534;2024-03-23T13:16:42;6.50;99.90
53802;DHT22;39709;53.334;6.534;2024-03-23T13:19:07;6.40;99.90
53802;DHT22;39709;53.334;6.534;2024-03-23T13:21:33;6.70;99.90
53802;DHT22;39709;53.334;6.534;2024-03-23T13:23:58;6.70;99.90
53802;DHT22;39709;53.334;6.534;2024-03-23T13:26:24;6.80;99.90
53802;DHT22;39709;53.334;6.534;2024-03-23T13:28:49;6.70;99.90
53802;DHT22;39709;53.334;6.534;2024-03-23T13:31:15;6.80;99.90
53802;DHT22;39709;53.334;6.534;2024-03-23T13:33:41;6.70;99.90
53802;DHT22;39709;53.334;6.534;2024-03-23T13:36:09;6.80;99.90
53802;DHT22;39709;53.334;6.534;2024-03-23T13:38:34;6.90;99.90
53802;DHT22;39709;53.334;6.534;2024-03-23T13:41:00;7.20;99.90
53802;DHT22;39709;53.334;6.534;2024-03-23T13:43:26;7.20;99.90
53802;DHT22;39709;53.334;6.534;2024-03-23T13:45:59;6.90;99.90
53802;DHT22;39709;53.334;6.534;2024-03-23T13:48:25;6.50;99.90
53802;DHT22;39709;53.334;6.534;2024-03-23T13:51:00;6.40;99.90
53802;DHT22;39709;53.334;6.534;2024-03-23T13:53:26;6.30;99.90
53802;DHT22;39709;53.334;6.534;2024-03-23T13:55:51;6.50;99.90
53802;DHT22;39709;53.334;6.534;2024-03-23T13:58:17;6.70;99.90
53802;DHT22;39709;53.334;6.534;2024-03-23T14:00:43;6.80;99.90
53802;DHT22;39709;53.334;6.534;2024-03-23T14:03:09;7.20;99.90
53802;DHT22;39709;53.334;6.534;2024-03-23T14:05:34;7.10;99.90
53802;DHT22;39709;53.334;6.534;2024-03-23T14:08:00;7.20;99.90
53802;DHT22;39709;53.334;6.534;2024-03-23T14:10:26;7.30;99.90
53802;DHT22;39709;53.334;6.534;2024-03-23T14:12:51;7.60;99.90
53802;DHT22;39709;53.334;6.534;2024-03-23T14:15:17;7.30;99.90
53802;DHT22;39709;53.334;6.534;2024-03-23T14:17:43;7.20;99.90
53802;DHT22;39709;53.334;6.534;2024-03-23T14:20:09;7.20;99.90
53802;DHT22;39709;53.334;6.534;2024-03-23T14:22:36;7.00;99.90
53802;DHT22;39709;53.334;6.534;2024-03-23T14:25:02;7.00;99.90
53802;DHT22;39709;53.334;6.534;2024-03-23T14:27:28;7.00;99.90
53802;DHT22;39709;53.334;6.534;2024-03-23T14:29:54;7.10;99.90
53802;DHT22;39709;53.334;6.534;2024-03-23T14:32:21;7.10;99.90
53802;DHT22;39709;53.334;6.534;2024-03-23T14:34:47;7.30;99.90
53802;DHT22;39709;53.334;6.534;2024-03-23T14:37:12;7.30;99.90
53802;DHT22;39709;53.334;6.534;2024-03-23T14:39:38;7.10;99.90
53802;DHT22;39709;53.334;6.534;2024-03-23T14:42:07;7.20;99.90
53802;DHT22;39709;53.334;6.534;2024-03-23T14:44:34;7.50;99.90
53802;DHT22;39709;53.334;6.534;2024-03-23T14:46:59;7.50;99.90
53802;DHT22;39709;53.334;6.534;2024-03-23T14:49:25;7.40;99.90
53802;DHT22;39709;53.334;6.534;2024-03-23T14:51:51;7.30;99.90
53802;DHT22;39709;53.334;6.534;2024-03-23T14:54:16;7.40;99.90
53802;DHT22;39709;53.334;6.534;2024-03-23T14:56:42;7.50;99.90
53802;DHT22;39709;53.334;6.534;2024-03-23T14:59:08;7.50;99.90
53802;DHT22;39709;53.334;6.534;2024-03-23T15:01:33;7.30;99.90
53802;DHT22;39709;53.334;6.534;2024-03-23T15:03:59;7.30;99.90
53802;DHT22;39709;53.334;6.534;2024-03-23T15:06:25;7.40;99.90
53802;DHT22;39709;53.334;6.534;2024-03-23T15:08:50;7.50;99.90
53802;DHT22;39709;53.334;6.534;2024-03-23T15:11:16;7.70;99.90
53802;DHT22;39709;53.334;6.534;2024-03-23T15:13:44;7.70;99.90
53802;DHT22;39709;53.334;6.534;2024-03-23T15:16:10;7.50;99.90
53802;DHT22;39709;53.334;6.534;2024-03-23T15:18:35;7.60;99.90
53802;DHT22;39709;53.334;6.534;2024-03-23T15:21:02;7.60;99.90
53802;DHT22;39709;53.334;6.534;2024-03-23T15:23:28;7.60;99.90
53802;DHT22;39709;53.334;6.534;2024-03-23T15:25:54;7.70;99.90
53802;DHT22;39709;53.334;6.534;2024-03-23T15:28:20;8.00;99.90
53802;DHT22;39709;53.334;6.534;2024-03-23T15:30:45;8.30;99.90
53802;DHT22;39709;53.334;6.534;2024-03-23T15:33:11;8.30;99.90
53802;DHT22;39709;53.334;6.534;2024-03-23T15:35:37;8.50;99.90
53802;DHT22;39709;53.334;6.534;2024-03-23T15:38:02;8.20;99.90
53802;DHT22;39709;53.334;6.534;2024-03-23T15:40:29;8.00;99.90
53802;DHT22;39709;53.334;6.534;2024-03-23T15:42:54;7.80;99.90
53802;DHT22;39709;53.334;6.534;2024-03-23T15:45:20;7.90;99.90
53802;DHT22;39709;53.334;6.534;2024-03-23T15:47:45;7.90;99.90
53802;DHT22;39709;53.334;6.534;2024-03-23T15:50:11;7.90;99.90
53802;DHT22;39709;53.334;6.534;2024-03-23T15:52:37;8.00;99.90
53802;DHT22;39709;53.334;6.534;2024-03-23T15:55:03;8.20;99.90
53802;DHT22;39709;53.334;6.534;2024-03-23T15:57:34;7.80;99.90
53802;DHT22;39709;53.334;6.534;2024-03-23T16:00:00;7.80;99.90
53802;DHT22;39709;53.334;6.534;2024-03-23T16:02:26;7.80;99.90
53802;DHT22;39709;53.334;6.534;2024-03-23T16:04:53;7.60;99.90
53802;DHT22;39709;53.334;6.534;2024-03-23T16:07:19;7.70;99.90
53802;DHT22;39709;53.334;6.534;2024-03-23T16:09:44;7.80;99.90
53802;DHT22;39709;53.334;6.534;2024-03-23T16:12:10;7.90;99.90
53802;DHT22;39709;53.334;6.534;2024-03-23T16:14:36;7.90;99.90
53802;DHT22;39709;53.334;6.534;2024-03-23T16:17:01;8.00;99.90
53802;DHT22;39709;53.334;6.534;2024-03-23T16:19:27;8.10;99.90
53802;DHT22;39709;53.334;6.534;2024-03-23T16:21:52;8.20;99.90
53802;DHT22;39709;53.334;6.534;2024-03-23T16:24:19;8.00;99.90
53802;DHT22;39709;53.334;6.534;2024-03-23T16:26:45;8.10;99.90
53802;DHT22;39709;53.334;6.534;2024-03-23T16:29:11;8.20;99.90
53802;DHT22;39709;53.334;6.534;2024-03-23T16:31:36;8.10;99.90
53802;DHT22;39709;53.334;6.534;2024-03-23T16:34:02;7.80;99.90
53802;DHT22;39709;53.334;6.534;2024-03-23T16:36:27;7.80;99.90